<?xml version="1.0" encoding="UTF-8" standalone="no" ?>
<gpx xmlns="http://www.topografix.com/GPX/1/1" xmlns:xsi="http://www.w3.org/2001/XMLSchema-instance" xsi:schemaLocation="http://www.topografix.com/GPX/1/1 http://www.topografix.com/GPX/1/1/gpx.xsd" version="1.1" creator="VisuGPX - https://www.visugpx.com">
  <metadata>
    <name>Marche Nordique 3 janvier 2015</name>
    <desc><![CDATA[Le 3 janvier sous la pluie.]]></desc>
  </metadata>
  <trk>
    <name><![CDATA[ACTIVE LOG104319]]></name>
    <trkseg>
      <trkpt lat="48.51414" lon="3.5983">
        <ele>21.956</ele>
        <time>2015-01-03T08:43:17Z</time>
      </trkpt>
      <trkpt lat="48.51414" lon="3.5983">
        <ele>21.956</ele>
        <time>2015-01-03T08:43:18Z</time>
      </trkpt>
      <trkpt lat="48.51414" lon="3.5983">
        <ele>28.619</ele>
        <time>2015-01-03T08:43:24Z</time>
      </trkpt>
      <trkpt lat="48.51414" lon="3.5983">
        <ele>28.636</ele>
        <time>2015-01-03T08:43:25Z</time>
      </trkpt>
      <trkpt lat="48.51414" lon="3.5983">
        <ele>32.404</ele>
        <time>2015-01-03T08:43:29Z</time>
      </trkpt>
      <trkpt lat="48.51413" lon="3.5983">
        <ele>35.556</ele>
        <time>2015-01-03T08:43:30Z</time>
      </trkpt>
      <trkpt lat="48.51414" lon="3.5983">
        <ele>34.999</ele>
        <time>2015-01-03T08:43:31Z</time>
      </trkpt>
      <trkpt lat="48.51414" lon="3.5983">
        <ele>38.893</ele>
        <time>2015-01-03T08:43:36Z</time>
      </trkpt>
      <trkpt lat="48.51414" lon="3.59828">
        <ele>42.076</ele>
        <time>2015-01-03T08:43:40Z</time>
      </trkpt>
      <trkpt lat="48.51414" lon="3.59827">
        <ele>45.157</ele>
        <time>2015-01-03T08:43:45Z</time>
      </trkpt>
      <trkpt lat="48.51414" lon="3.59827">
        <ele>48.407</ele>
        <time>2015-01-03T08:43:51Z</time>
      </trkpt>
      <trkpt lat="48.51414" lon="3.59828">
        <ele>48.676</ele>
        <time>2015-01-03T08:43:52Z</time>
      </trkpt>
      <trkpt lat="48.51414" lon="3.59829">
        <ele>51.772</ele>
        <time>2015-01-03T08:43:59Z</time>
      </trkpt>
      <trkpt lat="48.51414" lon="3.59828">
        <ele>54.894</ele>
        <time>2015-01-03T08:44:08Z</time>
      </trkpt>
      <trkpt lat="48.51414" lon="3.59828">
        <ele>58.213</ele>
        <time>2015-01-03T08:44:23Z</time>
      </trkpt>
      <trkpt lat="48.51414" lon="3.5983">
        <ele>59.899</ele>
        <time>2015-01-03T08:44:38Z</time>
      </trkpt>
      <trkpt lat="48.51414" lon="3.59829">
        <ele>60.709</ele>
        <time>2015-01-03T08:44:45Z</time>
      </trkpt>
      <trkpt lat="48.51415" lon="3.5983">
        <ele>61.239</ele>
        <time>2015-01-03T08:45:03Z</time>
      </trkpt>
      <trkpt lat="48.51415" lon="3.5983">
        <ele>61.207</ele>
        <time>2015-01-03T08:45:14Z</time>
      </trkpt>
      <trkpt lat="48.51416" lon="3.59831">
        <ele>60.912</ele>
        <time>2015-01-03T08:47:25Z</time>
      </trkpt>
      <trkpt lat="48.51417" lon="3.59836">
        <ele>60.868</ele>
        <time>2015-01-03T08:47:28Z</time>
      </trkpt>
      <trkpt lat="48.51422" lon="3.59841">
        <ele>60.958</ele>
        <time>2015-01-03T08:47:34Z</time>
      </trkpt>
      <trkpt lat="48.51428" lon="3.59853">
        <ele>61.492</ele>
        <time>2015-01-03T08:47:46Z</time>
      </trkpt>
      <trkpt lat="48.51428" lon="3.59855">
        <ele>61.372</ele>
        <time>2015-01-03T08:47:47Z</time>
      </trkpt>
      <trkpt lat="48.51429" lon="3.59859">
        <ele>61.715</ele>
        <time>2015-01-03T08:47:51Z</time>
      </trkpt>
      <trkpt lat="48.51436" lon="3.59863">
        <ele>61.328</ele>
        <time>2015-01-03T08:47:58Z</time>
      </trkpt>
      <trkpt lat="48.51449" lon="3.59854">
        <ele>61.695</ele>
        <time>2015-01-03T08:48:07Z</time>
      </trkpt>
      <trkpt lat="48.51463" lon="3.59851">
        <ele>61.568</ele>
        <time>2015-01-03T08:48:19Z</time>
      </trkpt>
      <trkpt lat="48.51469" lon="3.59866">
        <ele>60.9</ele>
        <time>2015-01-03T08:48:27Z</time>
      </trkpt>
      <trkpt lat="48.5147" lon="3.59874">
        <ele>60.906</ele>
        <time>2015-01-03T08:48:30Z</time>
      </trkpt>
      <trkpt lat="48.51474" lon="3.59906">
        <ele>60.277</ele>
        <time>2015-01-03T08:48:45Z</time>
      </trkpt>
      <trkpt lat="48.51479" lon="3.59936">
        <ele>60.193</ele>
        <time>2015-01-03T08:48:59Z</time>
      </trkpt>
      <trkpt lat="48.51484" lon="3.59966">
        <ele>60.361</ele>
        <time>2015-01-03T08:49:12Z</time>
      </trkpt>
      <trkpt lat="48.51491" lon="3.59999">
        <ele>59.888</ele>
        <time>2015-01-03T08:49:28Z</time>
      </trkpt>
      <trkpt lat="48.5149" lon="3.60011">
        <ele>60.245</ele>
        <time>2015-01-03T08:49:34Z</time>
      </trkpt>
      <trkpt lat="48.51492" lon="3.60019">
        <ele>60.24</ele>
        <time>2015-01-03T08:49:38Z</time>
      </trkpt>
      <trkpt lat="48.51495" lon="3.60044">
        <ele>59.955</ele>
        <time>2015-01-03T08:49:49Z</time>
      </trkpt>
      <trkpt lat="48.51498" lon="3.60062">
        <ele>59.911</ele>
        <time>2015-01-03T08:49:57Z</time>
      </trkpt>
      <trkpt lat="48.51497" lon="3.60074">
        <ele>59.635</ele>
        <time>2015-01-03T08:50:03Z</time>
      </trkpt>
      <trkpt lat="48.51501" lon="3.60089">
        <ele>60.2</ele>
        <time>2015-01-03T08:50:09Z</time>
      </trkpt>
      <trkpt lat="48.51503" lon="3.6011">
        <ele>60.263</ele>
        <time>2015-01-03T08:50:18Z</time>
      </trkpt>
      <trkpt lat="48.51507" lon="3.60125">
        <ele>59.839</ele>
        <time>2015-01-03T08:50:24Z</time>
      </trkpt>
      <trkpt lat="48.51506" lon="3.60127">
        <ele>59.916</ele>
        <time>2015-01-03T08:50:25Z</time>
      </trkpt>
      <trkpt lat="48.5151" lon="3.60156">
        <ele>60.157</ele>
        <time>2015-01-03T08:50:37Z</time>
      </trkpt>
      <trkpt lat="48.51509" lon="3.60176">
        <ele>60.029</ele>
        <time>2015-01-03T08:50:45Z</time>
      </trkpt>
      <trkpt lat="48.51512" lon="3.60184">
        <ele>60.054</ele>
        <time>2015-01-03T08:50:49Z</time>
      </trkpt>
      <trkpt lat="48.51511" lon="3.6019">
        <ele>60.27</ele>
        <time>2015-01-03T08:50:52Z</time>
      </trkpt>
      <trkpt lat="48.51511" lon="3.60195">
        <ele>59.966</ele>
        <time>2015-01-03T08:50:54Z</time>
      </trkpt>
      <trkpt lat="48.51512" lon="3.60218">
        <ele>60.286</ele>
        <time>2015-01-03T08:51:04Z</time>
      </trkpt>
      <trkpt lat="48.51513" lon="3.60252">
        <ele>60.364</ele>
        <time>2015-01-03T08:51:18Z</time>
      </trkpt>
      <trkpt lat="48.51515" lon="3.6028">
        <ele>60.63</ele>
        <time>2015-01-03T08:51:30Z</time>
      </trkpt>
      <trkpt lat="48.51516" lon="3.60311">
        <ele>60.189</ele>
        <time>2015-01-03T08:51:43Z</time>
      </trkpt>
      <trkpt lat="48.51515" lon="3.60341">
        <ele>60.306</ele>
        <time>2015-01-03T08:51:55Z</time>
      </trkpt>
      <trkpt lat="48.51514" lon="3.60364">
        <ele>60.119</ele>
        <time>2015-01-03T08:52:05Z</time>
      </trkpt>
      <trkpt lat="48.51513" lon="3.60381">
        <ele>60.559</ele>
        <time>2015-01-03T08:52:13Z</time>
      </trkpt>
      <trkpt lat="48.51512" lon="3.60395">
        <ele>60.361</ele>
        <time>2015-01-03T08:52:19Z</time>
      </trkpt>
      <trkpt lat="48.5151" lon="3.60414">
        <ele>60.205</ele>
        <time>2015-01-03T08:52:27Z</time>
      </trkpt>
      <trkpt lat="48.51509" lon="3.60448">
        <ele>60.745</ele>
        <time>2015-01-03T08:52:41Z</time>
      </trkpt>
      <trkpt lat="48.51506" lon="3.60482">
        <ele>60.618</ele>
        <time>2015-01-03T08:52:55Z</time>
      </trkpt>
      <trkpt lat="48.51503" lon="3.605">
        <ele>60.709</ele>
        <time>2015-01-03T08:53:04Z</time>
      </trkpt>
      <trkpt lat="48.515" lon="3.6051">
        <ele>60.877</ele>
        <time>2015-01-03T08:53:09Z</time>
      </trkpt>
      <trkpt lat="48.51499" lon="3.60528">
        <ele>60.904</ele>
        <time>2015-01-03T08:53:17Z</time>
      </trkpt>
      <trkpt lat="48.51499" lon="3.60545">
        <ele>60.652</ele>
        <time>2015-01-03T08:53:24Z</time>
      </trkpt>
      <trkpt lat="48.51497" lon="3.60565">
        <ele>60.831</ele>
        <time>2015-01-03T08:53:32Z</time>
      </trkpt>
      <trkpt lat="48.51494" lon="3.60601">
        <ele>60.893</ele>
        <time>2015-01-03T08:53:47Z</time>
      </trkpt>
      <trkpt lat="48.51493" lon="3.60608">
        <ele>60.51</ele>
        <time>2015-01-03T08:53:50Z</time>
      </trkpt>
      <trkpt lat="48.51493" lon="3.60617">
        <ele>60.832</ele>
        <time>2015-01-03T08:53:54Z</time>
      </trkpt>
      <trkpt lat="48.51492" lon="3.60632">
        <ele>60.783</ele>
        <time>2015-01-03T08:54:00Z</time>
      </trkpt>
      <trkpt lat="48.51491" lon="3.60659">
        <ele>60.701</ele>
        <time>2015-01-03T08:54:11Z</time>
      </trkpt>
      <trkpt lat="48.5149" lon="3.60665">
        <ele>60.72</ele>
        <time>2015-01-03T08:54:14Z</time>
      </trkpt>
      <trkpt lat="48.5149" lon="3.60671">
        <ele>62.042</ele>
        <time>2015-01-03T08:54:17Z</time>
      </trkpt>
      <trkpt lat="48.5149" lon="3.60678">
        <ele>60.788</ele>
        <time>2015-01-03T08:54:20Z</time>
      </trkpt>
      <trkpt lat="48.51491" lon="3.60692">
        <ele>60.942</ele>
        <time>2015-01-03T08:54:26Z</time>
      </trkpt>
      <trkpt lat="48.51492" lon="3.60705">
        <ele>60.793</ele>
        <time>2015-01-03T08:54:32Z</time>
      </trkpt>
      <trkpt lat="48.51491" lon="3.60716">
        <ele>61.077</ele>
        <time>2015-01-03T08:54:36Z</time>
      </trkpt>
      <trkpt lat="48.51491" lon="3.60723">
        <ele>61.17</ele>
        <time>2015-01-03T08:54:39Z</time>
      </trkpt>
      <trkpt lat="48.51488" lon="3.6076">
        <ele>61.273</ele>
        <time>2015-01-03T08:54:55Z</time>
      </trkpt>
      <trkpt lat="48.51489" lon="3.60774">
        <ele>60.972</ele>
        <time>2015-01-03T08:55:01Z</time>
      </trkpt>
      <trkpt lat="48.51487" lon="3.60781">
        <ele>61.169</ele>
        <time>2015-01-03T08:55:04Z</time>
      </trkpt>
      <trkpt lat="48.51487" lon="3.60786">
        <ele>61.131</ele>
        <time>2015-01-03T08:55:06Z</time>
      </trkpt>
      <trkpt lat="48.51487" lon="3.60799">
        <ele>61.095</ele>
        <time>2015-01-03T08:55:11Z</time>
      </trkpt>
      <trkpt lat="48.51486" lon="3.60815">
        <ele>61.112</ele>
        <time>2015-01-03T08:55:18Z</time>
      </trkpt>
      <trkpt lat="48.51486" lon="3.60842">
        <ele>61.202</ele>
        <time>2015-01-03T08:55:28Z</time>
      </trkpt>
      <trkpt lat="48.51485" lon="3.60862">
        <ele>61.195</ele>
        <time>2015-01-03T08:55:36Z</time>
      </trkpt>
      <trkpt lat="48.51486" lon="3.60875">
        <ele>60.935</ele>
        <time>2015-01-03T08:55:42Z</time>
      </trkpt>
      <trkpt lat="48.51485" lon="3.60886">
        <ele>60.909</ele>
        <time>2015-01-03T08:55:47Z</time>
      </trkpt>
      <trkpt lat="48.51486" lon="3.60902">
        <ele>61.286</ele>
        <time>2015-01-03T08:55:54Z</time>
      </trkpt>
      <trkpt lat="48.51486" lon="3.60911">
        <ele>60.862</ele>
        <time>2015-01-03T08:55:58Z</time>
      </trkpt>
      <trkpt lat="48.51487" lon="3.60925">
        <ele>61.137</ele>
        <time>2015-01-03T08:56:04Z</time>
      </trkpt>
      <trkpt lat="48.51486" lon="3.60946">
        <ele>61.033</ele>
        <time>2015-01-03T08:56:13Z</time>
      </trkpt>
      <trkpt lat="48.51486" lon="3.60947">
        <ele>61.243</ele>
        <time>2015-01-03T08:56:14Z</time>
      </trkpt>
      <trkpt lat="48.51486" lon="3.60957">
        <ele>61.147</ele>
        <time>2015-01-03T08:56:20Z</time>
      </trkpt>
      <trkpt lat="48.51487" lon="3.60965">
        <ele>61.194</ele>
        <time>2015-01-03T08:56:25Z</time>
      </trkpt>
      <trkpt lat="48.51486" lon="3.60977">
        <ele>61.226</ele>
        <time>2015-01-03T08:56:29Z</time>
      </trkpt>
      <trkpt lat="48.51491" lon="3.60999">
        <ele>61.041</ele>
        <time>2015-01-03T08:56:38Z</time>
      </trkpt>
      <trkpt lat="48.51491" lon="3.61017">
        <ele>61.323</ele>
        <time>2015-01-03T08:56:46Z</time>
      </trkpt>
      <trkpt lat="48.51494" lon="3.61049">
        <ele>61.302</ele>
        <time>2015-01-03T08:56:59Z</time>
      </trkpt>
      <trkpt lat="48.51498" lon="3.61072">
        <ele>61.35</ele>
        <time>2015-01-03T08:57:09Z</time>
      </trkpt>
      <trkpt lat="48.51499" lon="3.61079">
        <ele>61.087</ele>
        <time>2015-01-03T08:57:12Z</time>
      </trkpt>
      <trkpt lat="48.515" lon="3.61083">
        <ele>61.013</ele>
        <time>2015-01-03T08:57:14Z</time>
      </trkpt>
      <trkpt lat="48.51502" lon="3.61099">
        <ele>61.383</ele>
        <time>2015-01-03T08:57:21Z</time>
      </trkpt>
      <trkpt lat="48.51505" lon="3.61112">
        <ele>61.309</ele>
        <time>2015-01-03T08:57:27Z</time>
      </trkpt>
      <trkpt lat="48.51509" lon="3.61141">
        <ele>61.807</ele>
        <time>2015-01-03T08:57:40Z</time>
      </trkpt>
      <trkpt lat="48.51512" lon="3.61162">
        <ele>61.487</ele>
        <time>2015-01-03T08:57:50Z</time>
      </trkpt>
      <trkpt lat="48.51517" lon="3.61181">
        <ele>61.389</ele>
        <time>2015-01-03T08:57:58Z</time>
      </trkpt>
      <trkpt lat="48.51518" lon="3.61192">
        <ele>61.642</ele>
        <time>2015-01-03T08:58:02Z</time>
      </trkpt>
      <trkpt lat="48.51519" lon="3.61206">
        <ele>61.399</ele>
        <time>2015-01-03T08:58:08Z</time>
      </trkpt>
      <trkpt lat="48.51522" lon="3.6123">
        <ele>61.429</ele>
        <time>2015-01-03T08:58:19Z</time>
      </trkpt>
      <trkpt lat="48.51525" lon="3.61263">
        <ele>61.534</ele>
        <time>2015-01-03T08:58:33Z</time>
      </trkpt>
      <trkpt lat="48.51533" lon="3.61305">
        <ele>62.009</ele>
        <time>2015-01-03T08:58:51Z</time>
      </trkpt>
      <trkpt lat="48.51536" lon="3.61333">
        <ele>62.268</ele>
        <time>2015-01-03T08:59:03Z</time>
      </trkpt>
      <trkpt lat="48.51537" lon="3.61344">
        <ele>62.052</ele>
        <time>2015-01-03T08:59:08Z</time>
      </trkpt>
      <trkpt lat="48.51542" lon="3.61362">
        <ele>61.991</ele>
        <time>2015-01-03T08:59:17Z</time>
      </trkpt>
      <trkpt lat="48.51544" lon="3.61377">
        <ele>61.868</ele>
        <time>2015-01-03T08:59:23Z</time>
      </trkpt>
      <trkpt lat="48.51549" lon="3.61404">
        <ele>62.118</ele>
        <time>2015-01-03T08:59:35Z</time>
      </trkpt>
      <trkpt lat="48.51551" lon="3.61427">
        <ele>62.264</ele>
        <time>2015-01-03T08:59:45Z</time>
      </trkpt>
      <trkpt lat="48.51555" lon="3.6146">
        <ele>61.954</ele>
        <time>2015-01-03T09:00:00Z</time>
      </trkpt>
      <trkpt lat="48.51559" lon="3.61487">
        <ele>62.149</ele>
        <time>2015-01-03T09:00:11Z</time>
      </trkpt>
      <trkpt lat="48.51562" lon="3.61511">
        <ele>62.13</ele>
        <time>2015-01-03T09:00:22Z</time>
      </trkpt>
      <trkpt lat="48.51563" lon="3.61518">
        <ele>62.518</ele>
        <time>2015-01-03T09:00:25Z</time>
      </trkpt>
      <trkpt lat="48.51567" lon="3.61546">
        <ele>62.286</ele>
        <time>2015-01-03T09:00:38Z</time>
      </trkpt>
      <trkpt lat="48.51572" lon="3.61574">
        <ele>62.437</ele>
        <time>2015-01-03T09:00:51Z</time>
      </trkpt>
      <trkpt lat="48.51573" lon="3.61597">
        <ele>62.742</ele>
        <time>2015-01-03T09:01:00Z</time>
      </trkpt>
      <trkpt lat="48.51577" lon="3.61618">
        <ele>62.684</ele>
        <time>2015-01-03T09:01:10Z</time>
      </trkpt>
      <trkpt lat="48.51578" lon="3.61627">
        <ele>62.611</ele>
        <time>2015-01-03T09:01:14Z</time>
      </trkpt>
      <trkpt lat="48.5158" lon="3.61645">
        <ele>62.633</ele>
        <time>2015-01-03T09:01:22Z</time>
      </trkpt>
      <trkpt lat="48.51582" lon="3.61663">
        <ele>62.853</ele>
        <time>2015-01-03T09:01:30Z</time>
      </trkpt>
      <trkpt lat="48.51588" lon="3.6169">
        <ele>62.609</ele>
        <time>2015-01-03T09:01:42Z</time>
      </trkpt>
      <trkpt lat="48.5159" lon="3.61706">
        <ele>63.061</ele>
        <time>2015-01-03T09:01:49Z</time>
      </trkpt>
      <trkpt lat="48.51592" lon="3.61723">
        <ele>62.383</ele>
        <time>2015-01-03T09:01:56Z</time>
      </trkpt>
      <trkpt lat="48.51592" lon="3.61729">
        <ele>62.642</ele>
        <time>2015-01-03T09:01:59Z</time>
      </trkpt>
      <trkpt lat="48.51595" lon="3.61743">
        <ele>63.177</ele>
        <time>2015-01-03T09:02:05Z</time>
      </trkpt>
      <trkpt lat="48.51597" lon="3.61764">
        <ele>62.783</ele>
        <time>2015-01-03T09:02:14Z</time>
      </trkpt>
      <trkpt lat="48.51598" lon="3.61777">
        <ele>62.716</ele>
        <time>2015-01-03T09:02:19Z</time>
      </trkpt>
      <trkpt lat="48.516" lon="3.61782">
        <ele>62.597</ele>
        <time>2015-01-03T09:02:22Z</time>
      </trkpt>
      <trkpt lat="48.51601" lon="3.61787">
        <ele>62.816</ele>
        <time>2015-01-03T09:02:25Z</time>
      </trkpt>
      <trkpt lat="48.51603" lon="3.61798">
        <ele>63.167</ele>
        <time>2015-01-03T09:02:30Z</time>
      </trkpt>
      <trkpt lat="48.51605" lon="3.61817">
        <ele>62.673</ele>
        <time>2015-01-03T09:02:38Z</time>
      </trkpt>
      <trkpt lat="48.51607" lon="3.61824">
        <ele>62.93</ele>
        <time>2015-01-03T09:02:41Z</time>
      </trkpt>
      <trkpt lat="48.51608" lon="3.61832">
        <ele>62.803</ele>
        <time>2015-01-03T09:02:45Z</time>
      </trkpt>
      <trkpt lat="48.51608" lon="3.61843">
        <ele>62.556</ele>
        <time>2015-01-03T09:02:51Z</time>
      </trkpt>
      <trkpt lat="48.51609" lon="3.6186">
        <ele>62.96</ele>
        <time>2015-01-03T09:02:58Z</time>
      </trkpt>
      <trkpt lat="48.51611" lon="3.61874">
        <ele>62.536</ele>
        <time>2015-01-03T09:03:03Z</time>
      </trkpt>
      <trkpt lat="48.51614" lon="3.61892">
        <ele>62.64</ele>
        <time>2015-01-03T09:03:10Z</time>
      </trkpt>
      <trkpt lat="48.51615" lon="3.61911">
        <ele>62.99</ele>
        <time>2015-01-03T09:03:18Z</time>
      </trkpt>
      <trkpt lat="48.51619" lon="3.61927">
        <ele>62.425</ele>
        <time>2015-01-03T09:03:26Z</time>
      </trkpt>
      <trkpt lat="48.51623" lon="3.61945">
        <ele>62.687</ele>
        <time>2015-01-03T09:03:34Z</time>
      </trkpt>
      <trkpt lat="48.51625" lon="3.61952">
        <ele>62.609</ele>
        <time>2015-01-03T09:03:37Z</time>
      </trkpt>
      <trkpt lat="48.51627" lon="3.6197">
        <ele>62.943</ele>
        <time>2015-01-03T09:03:44Z</time>
      </trkpt>
      <trkpt lat="48.5163" lon="3.61984">
        <ele>62.426</ele>
        <time>2015-01-03T09:03:51Z</time>
      </trkpt>
      <trkpt lat="48.51631" lon="3.61991">
        <ele>62.835</ele>
        <time>2015-01-03T09:03:54Z</time>
      </trkpt>
      <trkpt lat="48.51631" lon="3.62016">
        <ele>62.737</ele>
        <time>2015-01-03T09:04:04Z</time>
      </trkpt>
      <trkpt lat="48.51634" lon="3.62038">
        <ele>63.1</ele>
        <time>2015-01-03T09:04:14Z</time>
      </trkpt>
      <trkpt lat="48.51639" lon="3.62064">
        <ele>63.402</ele>
        <time>2015-01-03T09:04:26Z</time>
      </trkpt>
      <trkpt lat="48.51642" lon="3.62089">
        <ele>63.118</ele>
        <time>2015-01-03T09:04:37Z</time>
      </trkpt>
      <trkpt lat="48.51645" lon="3.62115">
        <ele>62.689</ele>
        <time>2015-01-03T09:04:48Z</time>
      </trkpt>
      <trkpt lat="48.51647" lon="3.62126">
        <ele>63.157</ele>
        <time>2015-01-03T09:04:53Z</time>
      </trkpt>
      <trkpt lat="48.51649" lon="3.62141">
        <ele>62.913</ele>
        <time>2015-01-03T09:05:00Z</time>
      </trkpt>
      <trkpt lat="48.51649" lon="3.62145">
        <ele>62.922</ele>
        <time>2015-01-03T09:05:02Z</time>
      </trkpt>
      <trkpt lat="48.5165" lon="3.62151">
        <ele>63.191</ele>
        <time>2015-01-03T09:05:05Z</time>
      </trkpt>
      <trkpt lat="48.51652" lon="3.62161">
        <ele>63.278</ele>
        <time>2015-01-03T09:05:11Z</time>
      </trkpt>
      <trkpt lat="48.51657" lon="3.62187">
        <ele>62.881</ele>
        <time>2015-01-03T09:05:22Z</time>
      </trkpt>
      <trkpt lat="48.51658" lon="3.62195">
        <ele>62.846</ele>
        <time>2015-01-03T09:05:25Z</time>
      </trkpt>
      <trkpt lat="48.51658" lon="3.62201">
        <ele>63.164</ele>
        <time>2015-01-03T09:05:28Z</time>
      </trkpt>
      <trkpt lat="48.51657" lon="3.62206">
        <ele>63.315</ele>
        <time>2015-01-03T09:05:30Z</time>
      </trkpt>
      <trkpt lat="48.51663" lon="3.62226">
        <ele>62.907</ele>
        <time>2015-01-03T09:05:39Z</time>
      </trkpt>
      <trkpt lat="48.51664" lon="3.62233">
        <ele>62.613</ele>
        <time>2015-01-03T09:05:42Z</time>
      </trkpt>
      <trkpt lat="48.51668" lon="3.62255">
        <ele>63.355</ele>
        <time>2015-01-03T09:05:52Z</time>
      </trkpt>
      <trkpt lat="48.51668" lon="3.62257">
        <ele>63.205</ele>
        <time>2015-01-03T09:05:53Z</time>
      </trkpt>
      <trkpt lat="48.51668" lon="3.62276">
        <ele>62.801</ele>
        <time>2015-01-03T09:06:01Z</time>
      </trkpt>
      <trkpt lat="48.51669" lon="3.62284">
        <ele>62.959</ele>
        <time>2015-01-03T09:06:04Z</time>
      </trkpt>
      <trkpt lat="48.51673" lon="3.62305">
        <ele>63.086</ele>
        <time>2015-01-03T09:06:13Z</time>
      </trkpt>
      <trkpt lat="48.51675" lon="3.62315">
        <ele>62.61</ele>
        <time>2015-01-03T09:06:18Z</time>
      </trkpt>
      <trkpt lat="48.51674" lon="3.62323">
        <ele>62.87</ele>
        <time>2015-01-03T09:06:22Z</time>
      </trkpt>
      <trkpt lat="48.51676" lon="3.62333">
        <ele>63.166</ele>
        <time>2015-01-03T09:06:27Z</time>
      </trkpt>
      <trkpt lat="48.51678" lon="3.62344">
        <ele>62.97</ele>
        <time>2015-01-03T09:06:32Z</time>
      </trkpt>
      <trkpt lat="48.51681" lon="3.62368">
        <ele>62.768</ele>
        <time>2015-01-03T09:06:42Z</time>
      </trkpt>
      <trkpt lat="48.51685" lon="3.62388">
        <ele>63.015</ele>
        <time>2015-01-03T09:06:51Z</time>
      </trkpt>
      <trkpt lat="48.51685" lon="3.6239">
        <ele>62.875</ele>
        <time>2015-01-03T09:06:52Z</time>
      </trkpt>
      <trkpt lat="48.51687" lon="3.62405">
        <ele>63.278</ele>
        <time>2015-01-03T09:07:00Z</time>
      </trkpt>
      <trkpt lat="48.51691" lon="3.62423">
        <ele>62.725</ele>
        <time>2015-01-03T09:07:08Z</time>
      </trkpt>
      <trkpt lat="48.51694" lon="3.62444">
        <ele>62.993</ele>
        <time>2015-01-03T09:07:18Z</time>
      </trkpt>
      <trkpt lat="48.51695" lon="3.62447">
        <ele>62.877</ele>
        <time>2015-01-03T09:07:19Z</time>
      </trkpt>
      <trkpt lat="48.51698" lon="3.62476">
        <ele>63.018</ele>
        <time>2015-01-03T09:07:30Z</time>
      </trkpt>
      <trkpt lat="48.51698" lon="3.6248">
        <ele>62.637</ele>
        <time>2015-01-03T09:07:32Z</time>
      </trkpt>
      <trkpt lat="48.517" lon="3.62494">
        <ele>63.067</ele>
        <time>2015-01-03T09:07:38Z</time>
      </trkpt>
      <trkpt lat="48.51701" lon="3.62495">
        <ele>63.223</ele>
        <time>2015-01-03T09:07:39Z</time>
      </trkpt>
      <trkpt lat="48.51704" lon="3.62509">
        <ele>62.381</ele>
        <time>2015-01-03T09:07:45Z</time>
      </trkpt>
      <trkpt lat="48.51706" lon="3.62525">
        <ele>62.702</ele>
        <time>2015-01-03T09:07:52Z</time>
      </trkpt>
      <trkpt lat="48.51707" lon="3.62531">
        <ele>62.469</ele>
        <time>2015-01-03T09:07:55Z</time>
      </trkpt>
      <trkpt lat="48.51713" lon="3.62559">
        <ele>62.627</ele>
        <time>2015-01-03T09:08:06Z</time>
      </trkpt>
      <trkpt lat="48.51712" lon="3.62562">
        <ele>62.482</ele>
        <time>2015-01-03T09:08:07Z</time>
      </trkpt>
      <trkpt lat="48.51713" lon="3.62576">
        <ele>62.784</ele>
        <time>2015-01-03T09:08:13Z</time>
      </trkpt>
      <trkpt lat="48.51713" lon="3.62586">
        <ele>62.703</ele>
        <time>2015-01-03T09:08:17Z</time>
      </trkpt>
      <trkpt lat="48.51715" lon="3.626">
        <ele>62.732</ele>
        <time>2015-01-03T09:08:24Z</time>
      </trkpt>
      <trkpt lat="48.51715" lon="3.62602">
        <ele>62.706</ele>
        <time>2015-01-03T09:08:25Z</time>
      </trkpt>
      <trkpt lat="48.51719" lon="3.62628">
        <ele>62.942</ele>
        <time>2015-01-03T09:08:35Z</time>
      </trkpt>
      <trkpt lat="48.5172" lon="3.62632">
        <ele>63.044</ele>
        <time>2015-01-03T09:08:37Z</time>
      </trkpt>
      <trkpt lat="48.5172" lon="3.62635">
        <ele>62.854</ele>
        <time>2015-01-03T09:08:39Z</time>
      </trkpt>
      <trkpt lat="48.51721" lon="3.6264">
        <ele>62.767</ele>
        <time>2015-01-03T09:08:41Z</time>
      </trkpt>
      <trkpt lat="48.51721" lon="3.62651">
        <ele>63.19</ele>
        <time>2015-01-03T09:08:47Z</time>
      </trkpt>
      <trkpt lat="48.51721" lon="3.62656">
        <ele>63.145</ele>
        <time>2015-01-03T09:08:49Z</time>
      </trkpt>
      <trkpt lat="48.51725" lon="3.6267">
        <ele>63.497</ele>
        <time>2015-01-03T09:08:55Z</time>
      </trkpt>
      <trkpt lat="48.51726" lon="3.62674">
        <ele>63.542</ele>
        <time>2015-01-03T09:08:57Z</time>
      </trkpt>
      <trkpt lat="48.51728" lon="3.62679">
        <ele>63.424</ele>
        <time>2015-01-03T09:08:59Z</time>
      </trkpt>
      <trkpt lat="48.51728" lon="3.62688">
        <ele>63.181</ele>
        <time>2015-01-03T09:09:04Z</time>
      </trkpt>
      <trkpt lat="48.51728" lon="3.62696">
        <ele>63.595</ele>
        <time>2015-01-03T09:09:08Z</time>
      </trkpt>
      <trkpt lat="48.51729" lon="3.62701">
        <ele>63.221</ele>
        <time>2015-01-03T09:09:11Z</time>
      </trkpt>
      <trkpt lat="48.51733" lon="3.62726">
        <ele>63.013</ele>
        <time>2015-01-03T09:09:21Z</time>
      </trkpt>
      <trkpt lat="48.51735" lon="3.6273">
        <ele>62.978</ele>
        <time>2015-01-03T09:09:23Z</time>
      </trkpt>
      <trkpt lat="48.51738" lon="3.62759">
        <ele>62.894</ele>
        <time>2015-01-03T09:09:35Z</time>
      </trkpt>
      <trkpt lat="48.51739" lon="3.62771">
        <ele>63.2</ele>
        <time>2015-01-03T09:09:41Z</time>
      </trkpt>
      <trkpt lat="48.51743" lon="3.62796">
        <ele>62.974</ele>
        <time>2015-01-03T09:09:51Z</time>
      </trkpt>
      <trkpt lat="48.51747" lon="3.62811">
        <ele>63.612</ele>
        <time>2015-01-03T09:09:59Z</time>
      </trkpt>
      <trkpt lat="48.51751" lon="3.62836">
        <ele>63.475</ele>
        <time>2015-01-03T09:10:09Z</time>
      </trkpt>
      <trkpt lat="48.51751" lon="3.62843">
        <ele>63.621</ele>
        <time>2015-01-03T09:10:13Z</time>
      </trkpt>
      <trkpt lat="48.51753" lon="3.62864">
        <ele>63.363</ele>
        <time>2015-01-03T09:10:22Z</time>
      </trkpt>
      <trkpt lat="48.51755" lon="3.62879">
        <ele>63.455</ele>
        <time>2015-01-03T09:10:29Z</time>
      </trkpt>
      <trkpt lat="48.51756" lon="3.62891">
        <ele>63.605</ele>
        <time>2015-01-03T09:10:34Z</time>
      </trkpt>
      <trkpt lat="48.51757" lon="3.62905">
        <ele>64.098</ele>
        <time>2015-01-03T09:10:41Z</time>
      </trkpt>
      <trkpt lat="48.51761" lon="3.62923">
        <ele>63.61</ele>
        <time>2015-01-03T09:10:49Z</time>
      </trkpt>
      <trkpt lat="48.51764" lon="3.62932">
        <ele>64.087</ele>
        <time>2015-01-03T09:10:53Z</time>
      </trkpt>
      <trkpt lat="48.51765" lon="3.62941">
        <ele>63.893</ele>
        <time>2015-01-03T09:10:57Z</time>
      </trkpt>
      <trkpt lat="48.51766" lon="3.62946">
        <ele>63.667</ele>
        <time>2015-01-03T09:10:59Z</time>
      </trkpt>
      <trkpt lat="48.51768" lon="3.62955">
        <ele>63.599</ele>
        <time>2015-01-03T09:11:04Z</time>
      </trkpt>
      <trkpt lat="48.5177" lon="3.62969">
        <ele>63.658</ele>
        <time>2015-01-03T09:11:11Z</time>
      </trkpt>
      <trkpt lat="48.51772" lon="3.62985">
        <ele>64.111</ele>
        <time>2015-01-03T09:11:19Z</time>
      </trkpt>
      <trkpt lat="48.51774" lon="3.62992">
        <ele>63.656</ele>
        <time>2015-01-03T09:11:23Z</time>
      </trkpt>
      <trkpt lat="48.51775" lon="3.63">
        <ele>63.809</ele>
        <time>2015-01-03T09:11:27Z</time>
      </trkpt>
      <trkpt lat="48.51778" lon="3.6301">
        <ele>64.134</ele>
        <time>2015-01-03T09:11:33Z</time>
      </trkpt>
      <trkpt lat="48.51778" lon="3.63015">
        <ele>63.775</ele>
        <time>2015-01-03T09:11:36Z</time>
      </trkpt>
      <trkpt lat="48.51783" lon="3.63034">
        <ele>64.048</ele>
        <time>2015-01-03T09:11:44Z</time>
      </trkpt>
      <trkpt lat="48.51786" lon="3.63053">
        <ele>64.062</ele>
        <time>2015-01-03T09:11:52Z</time>
      </trkpt>
      <trkpt lat="48.51786" lon="3.63058">
        <ele>64.041</ele>
        <time>2015-01-03T09:11:54Z</time>
      </trkpt>
      <trkpt lat="48.51787" lon="3.63069">
        <ele>63.986</ele>
        <time>2015-01-03T09:11:59Z</time>
      </trkpt>
      <trkpt lat="48.51789" lon="3.63078">
        <ele>64.181</ele>
        <time>2015-01-03T09:12:03Z</time>
      </trkpt>
      <trkpt lat="48.51791" lon="3.63083">
        <ele>63.986</ele>
        <time>2015-01-03T09:12:07Z</time>
      </trkpt>
      <trkpt lat="48.51795" lon="3.63097">
        <ele>63.749</ele>
        <time>2015-01-03T09:12:16Z</time>
      </trkpt>
      <trkpt lat="48.51798" lon="3.63105">
        <ele>64.229</ele>
        <time>2015-01-03T09:12:20Z</time>
      </trkpt>
      <trkpt lat="48.51805" lon="3.63119">
        <ele>64.151</ele>
        <time>2015-01-03T09:12:29Z</time>
      </trkpt>
      <trkpt lat="48.51807" lon="3.63121">
        <ele>64.192</ele>
        <time>2015-01-03T09:12:31Z</time>
      </trkpt>
      <trkpt lat="48.51808" lon="3.63128">
        <ele>64.159</ele>
        <time>2015-01-03T09:12:35Z</time>
      </trkpt>
      <trkpt lat="48.51816" lon="3.63151">
        <ele>63.845</ele>
        <time>2015-01-03T09:12:47Z</time>
      </trkpt>
      <trkpt lat="48.5182" lon="3.63168">
        <ele>63.971</ele>
        <time>2015-01-03T09:12:55Z</time>
      </trkpt>
      <trkpt lat="48.51823" lon="3.63174">
        <ele>64.055</ele>
        <time>2015-01-03T09:12:59Z</time>
      </trkpt>
      <trkpt lat="48.51825" lon="3.63182">
        <ele>63.906</ele>
        <time>2015-01-03T09:13:08Z</time>
      </trkpt>
      <trkpt lat="48.51826" lon="3.63183">
        <ele>63.957</ele>
        <time>2015-01-03T09:13:24Z</time>
      </trkpt>
      <trkpt lat="48.51824" lon="3.63184">
        <ele>63.864</ele>
        <time>2015-01-03T09:13:35Z</time>
      </trkpt>
      <trkpt lat="48.51822" lon="3.63182">
        <ele>63.796</ele>
        <time>2015-01-03T09:13:45Z</time>
      </trkpt>
      <trkpt lat="48.51822" lon="3.63181">
        <ele>64.038</ele>
        <time>2015-01-03T09:13:50Z</time>
      </trkpt>
      <trkpt lat="48.51823" lon="3.63182">
        <ele>63.689</ele>
        <time>2015-01-03T09:14:06Z</time>
      </trkpt>
      <trkpt lat="48.51824" lon="3.63181">
        <ele>63.906</ele>
        <time>2015-01-03T09:14:35Z</time>
      </trkpt>
      <trkpt lat="48.51824" lon="3.63182">
        <ele>63.909</ele>
        <time>2015-01-03T09:15:07Z</time>
      </trkpt>
      <trkpt lat="48.51824" lon="3.63182">
        <ele>63.716</ele>
        <time>2015-01-03T09:15:27Z</time>
      </trkpt>
      <trkpt lat="48.51823" lon="3.63182">
        <ele>63.867</ele>
        <time>2015-01-03T09:15:46Z</time>
      </trkpt>
      <trkpt lat="48.51823" lon="3.63182">
        <ele>63.65</ele>
        <time>2015-01-03T09:16:02Z</time>
      </trkpt>
      <trkpt lat="48.51822" lon="3.63181">
        <ele>63.795</ele>
        <time>2015-01-03T09:16:42Z</time>
      </trkpt>
      <trkpt lat="48.51822" lon="3.63181">
        <ele>58.718</ele>
        <time>2015-01-03T09:16:59Z</time>
      </trkpt>
      <trkpt lat="48.51822" lon="3.63181">
        <ele>67.613</ele>
        <time>2015-01-03T09:17:00Z</time>
      </trkpt>
      <trkpt lat="48.51823" lon="3.63181">
        <ele>63.897</ele>
        <time>2015-01-03T09:17:01Z</time>
      </trkpt>
      <trkpt lat="48.51823" lon="3.63181">
        <ele>59.821</ele>
        <time>2015-01-03T09:17:06Z</time>
      </trkpt>
      <trkpt lat="48.51823" lon="3.63181">
        <ele>64.362</ele>
        <time>2015-01-03T09:17:09Z</time>
      </trkpt>
      <trkpt lat="48.51823" lon="3.63181">
        <ele>64.061</ele>
        <time>2015-01-03T09:17:10Z</time>
      </trkpt>
      <trkpt lat="48.51824" lon="3.63185">
        <ele>63.818</ele>
        <time>2015-01-03T09:17:24Z</time>
      </trkpt>
      <trkpt lat="48.51825" lon="3.63194">
        <ele>64.125</ele>
        <time>2015-01-03T09:17:31Z</time>
      </trkpt>
      <trkpt lat="48.51835" lon="3.63212">
        <ele>64.063</ele>
        <time>2015-01-03T09:17:43Z</time>
      </trkpt>
      <trkpt lat="48.51838" lon="3.63216">
        <ele>63.606</ele>
        <time>2015-01-03T09:17:46Z</time>
      </trkpt>
      <trkpt lat="48.51847" lon="3.6323">
        <ele>63.897</ele>
        <time>2015-01-03T09:17:55Z</time>
      </trkpt>
      <trkpt lat="48.51858" lon="3.63255">
        <ele>64.021</ele>
        <time>2015-01-03T09:18:08Z</time>
      </trkpt>
      <trkpt lat="48.51873" lon="3.63287">
        <ele>64.071</ele>
        <time>2015-01-03T09:18:25Z</time>
      </trkpt>
      <trkpt lat="48.51877" lon="3.63296">
        <ele>64.003</ele>
        <time>2015-01-03T09:18:30Z</time>
      </trkpt>
      <trkpt lat="48.51878" lon="3.633">
        <ele>64.026</ele>
        <time>2015-01-03T09:18:32Z</time>
      </trkpt>
      <trkpt lat="48.51889" lon="3.63319">
        <ele>64.159</ele>
        <time>2015-01-03T09:18:43Z</time>
      </trkpt>
      <trkpt lat="48.51893" lon="3.63324">
        <ele>64.229</ele>
        <time>2015-01-03T09:18:46Z</time>
      </trkpt>
      <trkpt lat="48.51897" lon="3.63332">
        <ele>64.003</ele>
        <time>2015-01-03T09:18:50Z</time>
      </trkpt>
      <trkpt lat="48.51914" lon="3.63355">
        <ele>64.146</ele>
        <time>2015-01-03T09:19:04Z</time>
      </trkpt>
      <trkpt lat="48.51923" lon="3.63366">
        <ele>64.206</ele>
        <time>2015-01-03T09:19:12Z</time>
      </trkpt>
      <trkpt lat="48.51927" lon="3.63378">
        <ele>63.907</ele>
        <time>2015-01-03T09:19:18Z</time>
      </trkpt>
      <trkpt lat="48.51933" lon="3.6339">
        <ele>64.241</ele>
        <time>2015-01-03T09:19:25Z</time>
      </trkpt>
      <trkpt lat="48.5195" lon="3.63418">
        <ele>63.568</ele>
        <time>2015-01-03T09:19:41Z</time>
      </trkpt>
      <trkpt lat="48.51953" lon="3.63423">
        <ele>63.83</ele>
        <time>2015-01-03T09:19:43Z</time>
      </trkpt>
      <trkpt lat="48.51964" lon="3.63436">
        <ele>63.542</ele>
        <time>2015-01-03T09:19:53Z</time>
      </trkpt>
      <trkpt lat="48.51975" lon="3.63445">
        <ele>63.522</ele>
        <time>2015-01-03T09:20:03Z</time>
      </trkpt>
      <trkpt lat="48.51983" lon="3.63449">
        <ele>63.601</ele>
        <time>2015-01-03T09:20:08Z</time>
      </trkpt>
      <trkpt lat="48.51997" lon="3.63464">
        <ele>64.033</ele>
        <time>2015-01-03T09:20:21Z</time>
      </trkpt>
      <trkpt lat="48.52006" lon="3.63474">
        <ele>64.259</ele>
        <time>2015-01-03T09:20:29Z</time>
      </trkpt>
      <trkpt lat="48.52006" lon="3.63475">
        <ele>64.232</ele>
        <time>2015-01-03T09:20:37Z</time>
      </trkpt>
      <trkpt lat="48.52014" lon="3.63478">
        <ele>64.164</ele>
        <time>2015-01-03T09:20:49Z</time>
      </trkpt>
      <trkpt lat="48.52025" lon="3.63491">
        <ele>63.557</ele>
        <time>2015-01-03T09:20:59Z</time>
      </trkpt>
      <trkpt lat="48.5203" lon="3.63497">
        <ele>62.98</ele>
        <time>2015-01-03T09:21:03Z</time>
      </trkpt>
      <trkpt lat="48.52037" lon="3.63502">
        <ele>63.307</ele>
        <time>2015-01-03T09:21:08Z</time>
      </trkpt>
      <trkpt lat="48.5205" lon="3.63515">
        <ele>63</ele>
        <time>2015-01-03T09:21:19Z</time>
      </trkpt>
      <trkpt lat="48.52054" lon="3.63519">
        <ele>63.118</ele>
        <time>2015-01-03T09:21:22Z</time>
      </trkpt>
      <trkpt lat="48.52062" lon="3.63535">
        <ele>62.923</ele>
        <time>2015-01-03T09:21:30Z</time>
      </trkpt>
      <trkpt lat="48.52063" lon="3.63538">
        <ele>63.454</ele>
        <time>2015-01-03T09:21:32Z</time>
      </trkpt>
      <trkpt lat="48.52067" lon="3.63539">
        <ele>63.477</ele>
        <time>2015-01-03T09:21:34Z</time>
      </trkpt>
      <trkpt lat="48.52085" lon="3.63549">
        <ele>63.783</ele>
        <time>2015-01-03T09:21:45Z</time>
      </trkpt>
      <trkpt lat="48.5209" lon="3.63556">
        <ele>63.121</ele>
        <time>2015-01-03T09:21:49Z</time>
      </trkpt>
      <trkpt lat="48.521" lon="3.63565">
        <ele>63.336</ele>
        <time>2015-01-03T09:21:56Z</time>
      </trkpt>
      <trkpt lat="48.52104" lon="3.63572">
        <ele>63.599</ele>
        <time>2015-01-03T09:22:01Z</time>
      </trkpt>
      <trkpt lat="48.52119" lon="3.63587">
        <ele>63.3</ele>
        <time>2015-01-03T09:22:13Z</time>
      </trkpt>
      <trkpt lat="48.52125" lon="3.63595">
        <ele>63.608</ele>
        <time>2015-01-03T09:22:18Z</time>
      </trkpt>
      <trkpt lat="48.52144" lon="3.63608">
        <ele>63.547</ele>
        <time>2015-01-03T09:22:31Z</time>
      </trkpt>
      <trkpt lat="48.52152" lon="3.63619">
        <ele>63.375</ele>
        <time>2015-01-03T09:22:38Z</time>
      </trkpt>
      <trkpt lat="48.52164" lon="3.63632">
        <ele>63.498</ele>
        <time>2015-01-03T09:22:48Z</time>
      </trkpt>
      <trkpt lat="48.5217" lon="3.63633">
        <ele>63.283</ele>
        <time>2015-01-03T09:22:52Z</time>
      </trkpt>
      <trkpt lat="48.52176" lon="3.63633">
        <ele>64.414</ele>
        <time>2015-01-03T09:22:56Z</time>
      </trkpt>
      <trkpt lat="48.5218" lon="3.63629">
        <ele>66.028</ele>
        <time>2015-01-03T09:23:02Z</time>
      </trkpt>
      <trkpt lat="48.52184" lon="3.6363">
        <ele>67.26</ele>
        <time>2015-01-03T09:23:08Z</time>
      </trkpt>
      <trkpt lat="48.52182" lon="3.63631">
        <ele>67.356</ele>
        <time>2015-01-03T09:23:18Z</time>
      </trkpt>
      <trkpt lat="48.52192" lon="3.63619">
        <ele>66.333</ele>
        <time>2015-01-03T09:23:29Z</time>
      </trkpt>
      <trkpt lat="48.52208" lon="3.63605">
        <ele>65.356</ele>
        <time>2015-01-03T09:23:41Z</time>
      </trkpt>
      <trkpt lat="48.52225" lon="3.63597">
        <ele>64.798</ele>
        <time>2015-01-03T09:23:53Z</time>
      </trkpt>
      <trkpt lat="48.52235" lon="3.63591">
        <ele>63.992</ele>
        <time>2015-01-03T09:23:59Z</time>
      </trkpt>
      <trkpt lat="48.52247" lon="3.63586">
        <ele>63.923</ele>
        <time>2015-01-03T09:24:07Z</time>
      </trkpt>
      <trkpt lat="48.52271" lon="3.63577">
        <ele>63.438</ele>
        <time>2015-01-03T09:24:23Z</time>
      </trkpt>
      <trkpt lat="48.52294" lon="3.63574">
        <ele>62.58</ele>
        <time>2015-01-03T09:24:38Z</time>
      </trkpt>
      <trkpt lat="48.52311" lon="3.63576">
        <ele>62.881</ele>
        <time>2015-01-03T09:24:50Z</time>
      </trkpt>
      <trkpt lat="48.52332" lon="3.63566">
        <ele>62.532</ele>
        <time>2015-01-03T09:25:05Z</time>
      </trkpt>
      <trkpt lat="48.52352" lon="3.63557">
        <ele>62.427</ele>
        <time>2015-01-03T09:25:19Z</time>
      </trkpt>
      <trkpt lat="48.52378" lon="3.63546">
        <ele>62.325</ele>
        <time>2015-01-03T09:25:36Z</time>
      </trkpt>
      <trkpt lat="48.52398" lon="3.63537">
        <ele>62.466</ele>
        <time>2015-01-03T09:25:49Z</time>
      </trkpt>
      <trkpt lat="48.52423" lon="3.63529">
        <ele>62.145</ele>
        <time>2015-01-03T09:26:05Z</time>
      </trkpt>
      <trkpt lat="48.52451" lon="3.63518">
        <ele>62.028</ele>
        <time>2015-01-03T09:26:22Z</time>
      </trkpt>
      <trkpt lat="48.52466" lon="3.63512">
        <ele>62.498</ele>
        <time>2015-01-03T09:26:33Z</time>
      </trkpt>
      <trkpt lat="48.5248" lon="3.63501">
        <ele>62.444</ele>
        <time>2015-01-03T09:26:43Z</time>
      </trkpt>
      <trkpt lat="48.52491" lon="3.63496">
        <ele>62.465</ele>
        <time>2015-01-03T09:26:51Z</time>
      </trkpt>
      <trkpt lat="48.52495" lon="3.63498">
        <ele>62.177</ele>
        <time>2015-01-03T09:26:54Z</time>
      </trkpt>
      <trkpt lat="48.52517" lon="3.63493">
        <ele>62.432</ele>
        <time>2015-01-03T09:27:08Z</time>
      </trkpt>
      <trkpt lat="48.52534" lon="3.63493">
        <ele>62.561</ele>
        <time>2015-01-03T09:27:19Z</time>
      </trkpt>
      <trkpt lat="48.52553" lon="3.63486">
        <ele>62.489</ele>
        <time>2015-01-03T09:27:31Z</time>
      </trkpt>
      <trkpt lat="48.52569" lon="3.63471">
        <ele>62.17</ele>
        <time>2015-01-03T09:27:42Z</time>
      </trkpt>
      <trkpt lat="48.52583" lon="3.63458">
        <ele>62.129</ele>
        <time>2015-01-03T09:27:52Z</time>
      </trkpt>
      <trkpt lat="48.52599" lon="3.6344">
        <ele>62.224</ele>
        <time>2015-01-03T09:28:05Z</time>
      </trkpt>
      <trkpt lat="48.52608" lon="3.63432">
        <ele>62.39</ele>
        <time>2015-01-03T09:28:12Z</time>
      </trkpt>
      <trkpt lat="48.5262" lon="3.63418">
        <ele>62.331</ele>
        <time>2015-01-03T09:28:20Z</time>
      </trkpt>
      <trkpt lat="48.52639" lon="3.63395">
        <ele>61.938</ele>
        <time>2015-01-03T09:28:35Z</time>
      </trkpt>
      <trkpt lat="48.52666" lon="3.63365">
        <ele>62.075</ele>
        <time>2015-01-03T09:28:56Z</time>
      </trkpt>
      <trkpt lat="48.52687" lon="3.6334">
        <ele>62.539</ele>
        <time>2015-01-03T09:29:13Z</time>
      </trkpt>
      <trkpt lat="48.5271" lon="3.63314">
        <ele>61.9</ele>
        <time>2015-01-03T09:29:30Z</time>
      </trkpt>
      <trkpt lat="48.52734" lon="3.63285">
        <ele>61.876</ele>
        <time>2015-01-03T09:29:49Z</time>
      </trkpt>
      <trkpt lat="48.52749" lon="3.63267">
        <ele>62.1</ele>
        <time>2015-01-03T09:30:01Z</time>
      </trkpt>
      <trkpt lat="48.52753" lon="3.63259">
        <ele>61.565</ele>
        <time>2015-01-03T09:30:06Z</time>
      </trkpt>
      <trkpt lat="48.52758" lon="3.63253">
        <ele>62.052</ele>
        <time>2015-01-03T09:30:10Z</time>
      </trkpt>
      <trkpt lat="48.52765" lon="3.63237">
        <ele>61.651</ele>
        <time>2015-01-03T09:30:19Z</time>
      </trkpt>
      <trkpt lat="48.5276" lon="3.63214">
        <ele>61.842</ele>
        <time>2015-01-03T09:30:29Z</time>
      </trkpt>
      <trkpt lat="48.52752" lon="3.63187">
        <ele>61.84</ele>
        <time>2015-01-03T09:30:41Z</time>
      </trkpt>
      <trkpt lat="48.52739" lon="3.63151">
        <ele>61.381</ele>
        <time>2015-01-03T09:30:58Z</time>
      </trkpt>
      <trkpt lat="48.52729" lon="3.63116">
        <ele>61.61</ele>
        <time>2015-01-03T09:31:14Z</time>
      </trkpt>
      <trkpt lat="48.52718" lon="3.63081">
        <ele>62.133</ele>
        <time>2015-01-03T09:31:30Z</time>
      </trkpt>
      <trkpt lat="48.52707" lon="3.63048">
        <ele>61.877</ele>
        <time>2015-01-03T09:31:45Z</time>
      </trkpt>
      <trkpt lat="48.52692" lon="3.63007">
        <ele>61.48</ele>
        <time>2015-01-03T09:32:04Z</time>
      </trkpt>
      <trkpt lat="48.52679" lon="3.62972">
        <ele>61.019</ele>
        <time>2015-01-03T09:32:20Z</time>
      </trkpt>
      <trkpt lat="48.52668" lon="3.6294">
        <ele>60.89</ele>
        <time>2015-01-03T09:32:35Z</time>
      </trkpt>
      <trkpt lat="48.52653" lon="3.62905">
        <ele>60.881</ele>
        <time>2015-01-03T09:32:52Z</time>
      </trkpt>
      <trkpt lat="48.5264" lon="3.6287">
        <ele>60.983</ele>
        <time>2015-01-03T09:33:09Z</time>
      </trkpt>
      <trkpt lat="48.52624" lon="3.6285">
        <ele>60.819</ele>
        <time>2015-01-03T09:33:21Z</time>
      </trkpt>
      <trkpt lat="48.52612" lon="3.62836">
        <ele>60.984</ele>
        <time>2015-01-03T09:33:30Z</time>
      </trkpt>
      <trkpt lat="48.52596" lon="3.6282">
        <ele>61.437</ele>
        <time>2015-01-03T09:33:42Z</time>
      </trkpt>
      <trkpt lat="48.52583" lon="3.62802">
        <ele>61.632</ele>
        <time>2015-01-03T09:33:53Z</time>
      </trkpt>
      <trkpt lat="48.52567" lon="3.62791">
        <ele>61.162</ele>
        <time>2015-01-03T09:34:03Z</time>
      </trkpt>
      <trkpt lat="48.52545" lon="3.62769">
        <ele>61.38</ele>
        <time>2015-01-03T09:34:20Z</time>
      </trkpt>
      <trkpt lat="48.52522" lon="3.62746">
        <ele>61.31</ele>
        <time>2015-01-03T09:34:38Z</time>
      </trkpt>
      <trkpt lat="48.52502" lon="3.62724">
        <ele>61.025</ele>
        <time>2015-01-03T09:34:54Z</time>
      </trkpt>
      <trkpt lat="48.52486" lon="3.6271">
        <ele>60.98</ele>
        <time>2015-01-03T09:35:06Z</time>
      </trkpt>
      <trkpt lat="48.52456" lon="3.62678">
        <ele>61.232</ele>
        <time>2015-01-03T09:35:28Z</time>
      </trkpt>
      <trkpt lat="48.52437" lon="3.6266">
        <ele>60.916</ele>
        <time>2015-01-03T09:35:42Z</time>
      </trkpt>
      <trkpt lat="48.52413" lon="3.62635">
        <ele>61.007</ele>
        <time>2015-01-03T09:36:00Z</time>
      </trkpt>
      <trkpt lat="48.52387" lon="3.62608">
        <ele>61.704</ele>
        <time>2015-01-03T09:36:19Z</time>
      </trkpt>
      <trkpt lat="48.52365" lon="3.62584">
        <ele>61.831</ele>
        <time>2015-01-03T09:36:36Z</time>
      </trkpt>
      <trkpt lat="48.52344" lon="3.62561">
        <ele>62.155</ele>
        <time>2015-01-03T09:36:52Z</time>
      </trkpt>
      <trkpt lat="48.5233" lon="3.62547">
        <ele>61.584</ele>
        <time>2015-01-03T09:37:03Z</time>
      </trkpt>
      <trkpt lat="48.5232" lon="3.62538">
        <ele>61.883</ele>
        <time>2015-01-03T09:37:10Z</time>
      </trkpt>
      <trkpt lat="48.52316" lon="3.62532">
        <ele>61.64</ele>
        <time>2015-01-03T09:37:14Z</time>
      </trkpt>
      <trkpt lat="48.52312" lon="3.62527">
        <ele>61.741</ele>
        <time>2015-01-03T09:37:17Z</time>
      </trkpt>
      <trkpt lat="48.52303" lon="3.62517">
        <ele>61.819</ele>
        <time>2015-01-03T09:37:25Z</time>
      </trkpt>
      <trkpt lat="48.52294" lon="3.62508">
        <ele>61.401</ele>
        <time>2015-01-03T09:37:31Z</time>
      </trkpt>
      <trkpt lat="48.5229" lon="3.62504">
        <ele>61.589</ele>
        <time>2015-01-03T09:37:34Z</time>
      </trkpt>
      <trkpt lat="48.52281" lon="3.62492">
        <ele>61.594</ele>
        <time>2015-01-03T09:37:42Z</time>
      </trkpt>
      <trkpt lat="48.52279" lon="3.62489">
        <ele>61.995</ele>
        <time>2015-01-03T09:37:44Z</time>
      </trkpt>
      <trkpt lat="48.5227" lon="3.6248">
        <ele>61.774</ele>
        <time>2015-01-03T09:37:53Z</time>
      </trkpt>
      <trkpt lat="48.52264" lon="3.62471">
        <ele>61.487</ele>
        <time>2015-01-03T09:37:57Z</time>
      </trkpt>
      <trkpt lat="48.52257" lon="3.62461">
        <ele>61.955</ele>
        <time>2015-01-03T09:38:03Z</time>
      </trkpt>
      <trkpt lat="48.52244" lon="3.62451">
        <ele>61.617</ele>
        <time>2015-01-03T09:38:11Z</time>
      </trkpt>
      <trkpt lat="48.52235" lon="3.62437">
        <ele>61.669</ele>
        <time>2015-01-03T09:38:19Z</time>
      </trkpt>
      <trkpt lat="48.52226" lon="3.62422">
        <ele>61.901</ele>
        <time>2015-01-03T09:38:27Z</time>
      </trkpt>
      <trkpt lat="48.52216" lon="3.62415">
        <ele>61.616</ele>
        <time>2015-01-03T09:38:35Z</time>
      </trkpt>
      <trkpt lat="48.52196" lon="3.62417">
        <ele>62.191</ele>
        <time>2015-01-03T09:38:46Z</time>
      </trkpt>
      <trkpt lat="48.5218" lon="3.62422">
        <ele>63.051</ele>
        <time>2015-01-03T09:38:56Z</time>
      </trkpt>
      <trkpt lat="48.52174" lon="3.62416">
        <ele>62.646</ele>
        <time>2015-01-03T09:39:00Z</time>
      </trkpt>
      <trkpt lat="48.52162" lon="3.62421">
        <ele>62.667</ele>
        <time>2015-01-03T09:39:06Z</time>
      </trkpt>
      <trkpt lat="48.52144" lon="3.6243">
        <ele>62.648</ele>
        <time>2015-01-03T09:39:18Z</time>
      </trkpt>
      <trkpt lat="48.52132" lon="3.62445">
        <ele>62.42</ele>
        <time>2015-01-03T09:39:28Z</time>
      </trkpt>
      <trkpt lat="48.5211" lon="3.6248">
        <ele>62.703</ele>
        <time>2015-01-03T09:39:48Z</time>
      </trkpt>
      <trkpt lat="48.52091" lon="3.62512">
        <ele>62.929</ele>
        <time>2015-01-03T09:40:07Z</time>
      </trkpt>
      <trkpt lat="48.52077" lon="3.62537">
        <ele>62.929</ele>
        <time>2015-01-03T09:40:22Z</time>
      </trkpt>
      <trkpt lat="48.52059" lon="3.62568">
        <ele>63.128</ele>
        <time>2015-01-03T09:40:40Z</time>
      </trkpt>
      <trkpt lat="48.52043" lon="3.62597">
        <ele>63.174</ele>
        <time>2015-01-03T09:40:56Z</time>
      </trkpt>
      <trkpt lat="48.52029" lon="3.62619">
        <ele>62.984</ele>
        <time>2015-01-03T09:41:09Z</time>
      </trkpt>
      <trkpt lat="48.52014" lon="3.6262">
        <ele>62.275</ele>
        <time>2015-01-03T09:41:19Z</time>
      </trkpt>
      <trkpt lat="48.51995" lon="3.62615">
        <ele>62.95</ele>
        <time>2015-01-03T09:41:31Z</time>
      </trkpt>
      <trkpt lat="48.51981" lon="3.62607">
        <ele>62.732</ele>
        <time>2015-01-03T09:41:41Z</time>
      </trkpt>
      <trkpt lat="48.51968" lon="3.62598">
        <ele>62.572</ele>
        <time>2015-01-03T09:41:51Z</time>
      </trkpt>
      <trkpt lat="48.51957" lon="3.62589">
        <ele>63.016</ele>
        <time>2015-01-03T09:41:59Z</time>
      </trkpt>
      <trkpt lat="48.51942" lon="3.62582">
        <ele>62.632</ele>
        <time>2015-01-03T09:42:08Z</time>
      </trkpt>
      <trkpt lat="48.51925" lon="3.62574">
        <ele>62.742</ele>
        <time>2015-01-03T09:42:19Z</time>
      </trkpt>
      <trkpt lat="48.51909" lon="3.62567">
        <ele>63.341</ele>
        <time>2015-01-03T09:42:29Z</time>
      </trkpt>
      <trkpt lat="48.51894" lon="3.62565">
        <ele>62.951</ele>
        <time>2015-01-03T09:42:38Z</time>
      </trkpt>
      <trkpt lat="48.51886" lon="3.62566">
        <ele>63.206</ele>
        <time>2015-01-03T09:42:47Z</time>
      </trkpt>
      <trkpt lat="48.51884" lon="3.62564">
        <ele>59.956</ele>
        <time>2015-01-03T09:45:15Z</time>
      </trkpt>
      <trkpt lat="48.51884" lon="3.62564">
        <ele>68.666</ele>
        <time>2015-01-03T09:45:16Z</time>
      </trkpt>
      <trkpt lat="48.51884" lon="3.62564">
        <ele>65.072</ele>
        <time>2015-01-03T09:45:17Z</time>
      </trkpt>
      <trkpt lat="48.51885" lon="3.62565">
        <ele>61.01</ele>
        <time>2015-01-03T09:45:33Z</time>
      </trkpt>
      <trkpt lat="48.51885" lon="3.62564">
        <ele>50.727</ele>
        <time>2015-01-03T09:45:35Z</time>
      </trkpt>
      <trkpt lat="48.51885" lon="3.62564">
        <ele>68.72</ele>
        <time>2015-01-03T09:45:36Z</time>
      </trkpt>
      <trkpt lat="48.51885" lon="3.62563">
        <ele>65.049</ele>
        <time>2015-01-03T09:45:37Z</time>
      </trkpt>
      <trkpt lat="48.51883" lon="3.62564">
        <ele>63.394</ele>
        <time>2015-01-03T09:45:55Z</time>
      </trkpt>
      <trkpt lat="48.51876" lon="3.6257">
        <ele>63.231</ele>
        <time>2015-01-03T09:46:02Z</time>
      </trkpt>
      <trkpt lat="48.51865" lon="3.62588">
        <ele>63.482</ele>
        <time>2015-01-03T09:46:15Z</time>
      </trkpt>
      <trkpt lat="48.51859" lon="3.62601">
        <ele>63.453</ele>
        <time>2015-01-03T09:46:22Z</time>
      </trkpt>
      <trkpt lat="48.51853" lon="3.62621">
        <ele>63.384</ele>
        <time>2015-01-03T09:46:31Z</time>
      </trkpt>
      <trkpt lat="48.51851" lon="3.62642">
        <ele>63.907</ele>
        <time>2015-01-03T09:46:41Z</time>
      </trkpt>
      <trkpt lat="48.51857" lon="3.62671">
        <ele>64.311</ele>
        <time>2015-01-03T09:46:54Z</time>
      </trkpt>
      <trkpt lat="48.51865" lon="3.62708">
        <ele>64.235</ele>
        <time>2015-01-03T09:47:10Z</time>
      </trkpt>
      <trkpt lat="48.5187" lon="3.62724">
        <ele>64.308</ele>
        <time>2015-01-03T09:47:17Z</time>
      </trkpt>
      <trkpt lat="48.51876" lon="3.62772">
        <ele>63.985</ele>
        <time>2015-01-03T09:47:36Z</time>
      </trkpt>
      <trkpt lat="48.51877" lon="3.62793">
        <ele>64.046</ele>
        <time>2015-01-03T09:47:44Z</time>
      </trkpt>
      <trkpt lat="48.51878" lon="3.62822">
        <ele>64.163</ele>
        <time>2015-01-03T09:47:55Z</time>
      </trkpt>
      <trkpt lat="48.51878" lon="3.62827">
        <ele>64.725</ele>
        <time>2015-01-03T09:47:57Z</time>
      </trkpt>
      <trkpt lat="48.51874" lon="3.62861">
        <ele>65.027</ele>
        <time>2015-01-03T09:48:09Z</time>
      </trkpt>
      <trkpt lat="48.51867" lon="3.62882">
        <ele>65.365</ele>
        <time>2015-01-03T09:48:17Z</time>
      </trkpt>
      <trkpt lat="48.51865" lon="3.62898">
        <ele>65.341</ele>
        <time>2015-01-03T09:48:24Z</time>
      </trkpt>
      <trkpt lat="48.51867" lon="3.62902">
        <ele>64.747</ele>
        <time>2015-01-03T09:48:27Z</time>
      </trkpt>
      <trkpt lat="48.51871" lon="3.62917">
        <ele>64.262</ele>
        <time>2015-01-03T09:48:35Z</time>
      </trkpt>
      <trkpt lat="48.51873" lon="3.62927">
        <ele>64.031</ele>
        <time>2015-01-03T09:48:40Z</time>
      </trkpt>
      <trkpt lat="48.51876" lon="3.62941">
        <ele>64.015</ele>
        <time>2015-01-03T09:48:46Z</time>
      </trkpt>
      <trkpt lat="48.51877" lon="3.62944">
        <ele>63.872</ele>
        <time>2015-01-03T09:48:47Z</time>
      </trkpt>
      <trkpt lat="48.51877" lon="3.62949">
        <ele>64.023</ele>
        <time>2015-01-03T09:48:49Z</time>
      </trkpt>
      <trkpt lat="48.51881" lon="3.6296">
        <ele>63.924</ele>
        <time>2015-01-03T09:48:54Z</time>
      </trkpt>
      <trkpt lat="48.51882" lon="3.62967">
        <ele>64.297</ele>
        <time>2015-01-03T09:48:57Z</time>
      </trkpt>
      <trkpt lat="48.51882" lon="3.62972">
        <ele>63.946</ele>
        <time>2015-01-03T09:48:59Z</time>
      </trkpt>
      <trkpt lat="48.51885" lon="3.62995">
        <ele>64.16</ele>
        <time>2015-01-03T09:49:08Z</time>
      </trkpt>
      <trkpt lat="48.51885" lon="3.63005">
        <ele>64.112</ele>
        <time>2015-01-03T09:49:12Z</time>
      </trkpt>
      <trkpt lat="48.51887" lon="3.6302">
        <ele>64.124</ele>
        <time>2015-01-03T09:49:18Z</time>
      </trkpt>
      <trkpt lat="48.51889" lon="3.63033">
        <ele>64.091</ele>
        <time>2015-01-03T09:49:24Z</time>
      </trkpt>
      <trkpt lat="48.51889" lon="3.63043">
        <ele>64.532</ele>
        <time>2015-01-03T09:49:28Z</time>
      </trkpt>
      <trkpt lat="48.51889" lon="3.63057">
        <ele>64.394</ele>
        <time>2015-01-03T09:49:34Z</time>
      </trkpt>
      <trkpt lat="48.51891" lon="3.63066">
        <ele>64.878</ele>
        <time>2015-01-03T09:49:38Z</time>
      </trkpt>
      <trkpt lat="48.51891" lon="3.63071">
        <ele>64.653</ele>
        <time>2015-01-03T09:49:40Z</time>
      </trkpt>
      <trkpt lat="48.51891" lon="3.63083">
        <ele>64.778</ele>
        <time>2015-01-03T09:49:45Z</time>
      </trkpt>
      <trkpt lat="48.51893" lon="3.63102">
        <ele>64.478</ele>
        <time>2015-01-03T09:49:53Z</time>
      </trkpt>
      <trkpt lat="48.51889" lon="3.63127">
        <ele>64.855</ele>
        <time>2015-01-03T09:50:03Z</time>
      </trkpt>
      <trkpt lat="48.51887" lon="3.63138">
        <ele>65.064</ele>
        <time>2015-01-03T09:50:08Z</time>
      </trkpt>
      <trkpt lat="48.51884" lon="3.63163">
        <ele>65.015</ele>
        <time>2015-01-03T09:50:19Z</time>
      </trkpt>
      <trkpt lat="48.51878" lon="3.63181">
        <ele>64.968</ele>
        <time>2015-01-03T09:50:27Z</time>
      </trkpt>
      <trkpt lat="48.51871" lon="3.63196">
        <ele>64.686</ele>
        <time>2015-01-03T09:50:36Z</time>
      </trkpt>
      <trkpt lat="48.51869" lon="3.63199">
        <ele>64.71</ele>
        <time>2015-01-03T09:50:38Z</time>
      </trkpt>
      <trkpt lat="48.51866" lon="3.63202">
        <ele>64.464</ele>
        <time>2015-01-03T09:50:40Z</time>
      </trkpt>
      <trkpt lat="48.51861" lon="3.63207">
        <ele>64.746</ele>
        <time>2015-01-03T09:50:44Z</time>
      </trkpt>
      <trkpt lat="48.51848" lon="3.63217">
        <ele>64.834</ele>
        <time>2015-01-03T09:50:53Z</time>
      </trkpt>
      <trkpt lat="48.5184" lon="3.63222">
        <ele>65.641</ele>
        <time>2015-01-03T09:51:01Z</time>
      </trkpt>
      <trkpt lat="48.51835" lon="3.63221">
        <ele>65.802</ele>
        <time>2015-01-03T09:51:14Z</time>
      </trkpt>
      <trkpt lat="48.51831" lon="3.63213">
        <ele>65.703</ele>
        <time>2015-01-03T09:51:21Z</time>
      </trkpt>
      <trkpt lat="48.51831" lon="3.63212">
        <ele>65.711</ele>
        <time>2015-01-03T09:51:22Z</time>
      </trkpt>
      <trkpt lat="48.51823" lon="3.632">
        <ele>65.893</ele>
        <time>2015-01-03T09:51:31Z</time>
      </trkpt>
      <trkpt lat="48.51822" lon="3.63196">
        <ele>65.639</ele>
        <time>2015-01-03T09:51:33Z</time>
      </trkpt>
      <trkpt lat="48.51814" lon="3.63169">
        <ele>65.823</ele>
        <time>2015-01-03T09:51:45Z</time>
      </trkpt>
      <trkpt lat="48.51805" lon="3.63148">
        <ele>66.175</ele>
        <time>2015-01-03T09:51:56Z</time>
      </trkpt>
      <trkpt lat="48.51798" lon="3.63129">
        <ele>66.504</ele>
        <time>2015-01-03T09:52:06Z</time>
      </trkpt>
      <trkpt lat="48.51792" lon="3.63111">
        <ele>66.634</ele>
        <time>2015-01-03T09:52:14Z</time>
      </trkpt>
      <trkpt lat="48.51787" lon="3.63091">
        <ele>66.737</ele>
        <time>2015-01-03T09:52:24Z</time>
      </trkpt>
      <trkpt lat="48.51785" lon="3.63081">
        <ele>66.97</ele>
        <time>2015-01-03T09:52:29Z</time>
      </trkpt>
      <trkpt lat="48.51784" lon="3.63075">
        <ele>66.962</ele>
        <time>2015-01-03T09:52:33Z</time>
      </trkpt>
      <trkpt lat="48.51781" lon="3.63065">
        <ele>67.275</ele>
        <time>2015-01-03T09:52:39Z</time>
      </trkpt>
      <trkpt lat="48.51779" lon="3.63059">
        <ele>66.99</ele>
        <time>2015-01-03T09:52:43Z</time>
      </trkpt>
      <trkpt lat="48.51773" lon="3.63037">
        <ele>67.438</ele>
        <time>2015-01-03T09:52:53Z</time>
      </trkpt>
      <trkpt lat="48.51767" lon="3.63015">
        <ele>67.285</ele>
        <time>2015-01-03T09:53:04Z</time>
      </trkpt>
      <trkpt lat="48.5176" lon="3.62988">
        <ele>67.014</ele>
        <time>2015-01-03T09:53:16Z</time>
      </trkpt>
      <trkpt lat="48.51758" lon="3.62966">
        <ele>67.346</ele>
        <time>2015-01-03T09:53:26Z</time>
      </trkpt>
      <trkpt lat="48.51756" lon="3.62948">
        <ele>67.466</ele>
        <time>2015-01-03T09:53:35Z</time>
      </trkpt>
      <trkpt lat="48.51752" lon="3.62926">
        <ele>66.906</ele>
        <time>2015-01-03T09:53:45Z</time>
      </trkpt>
      <trkpt lat="48.51747" lon="3.62901">
        <ele>67.748</ele>
        <time>2015-01-03T09:53:56Z</time>
      </trkpt>
      <trkpt lat="48.51743" lon="3.62872">
        <ele>67.457</ele>
        <time>2015-01-03T09:54:09Z</time>
      </trkpt>
      <trkpt lat="48.5174" lon="3.62842">
        <ele>66.849</ele>
        <time>2015-01-03T09:54:21Z</time>
      </trkpt>
      <trkpt lat="48.51737" lon="3.62809">
        <ele>67.368</ele>
        <time>2015-01-03T09:54:36Z</time>
      </trkpt>
      <trkpt lat="48.51733" lon="3.62787">
        <ele>66.883</ele>
        <time>2015-01-03T09:54:46Z</time>
      </trkpt>
      <trkpt lat="48.51729" lon="3.62758">
        <ele>66.844</ele>
        <time>2015-01-03T09:54:58Z</time>
      </trkpt>
      <trkpt lat="48.51724" lon="3.62727">
        <ele>67.06</ele>
        <time>2015-01-03T09:55:12Z</time>
      </trkpt>
      <trkpt lat="48.51722" lon="3.62708">
        <ele>66.38</ele>
        <time>2015-01-03T09:55:21Z</time>
      </trkpt>
      <trkpt lat="48.51719" lon="3.62685">
        <ele>66.903</ele>
        <time>2015-01-03T09:55:31Z</time>
      </trkpt>
      <trkpt lat="48.51717" lon="3.62665">
        <ele>66.803</ele>
        <time>2015-01-03T09:55:40Z</time>
      </trkpt>
      <trkpt lat="48.51712" lon="3.62642">
        <ele>66.846</ele>
        <time>2015-01-03T09:55:50Z</time>
      </trkpt>
      <trkpt lat="48.5171" lon="3.62618">
        <ele>66.801</ele>
        <time>2015-01-03T09:55:59Z</time>
      </trkpt>
      <trkpt lat="48.51709" lon="3.62592">
        <ele>66.932</ele>
        <time>2015-01-03T09:56:11Z</time>
      </trkpt>
      <trkpt lat="48.51706" lon="3.62561">
        <ele>66.489</ele>
        <time>2015-01-03T09:56:25Z</time>
      </trkpt>
      <trkpt lat="48.51703" lon="3.62535">
        <ele>66.723</ele>
        <time>2015-01-03T09:56:37Z</time>
      </trkpt>
      <trkpt lat="48.51697" lon="3.62501">
        <ele>67.012</ele>
        <time>2015-01-03T09:56:51Z</time>
      </trkpt>
      <trkpt lat="48.51693" lon="3.62473">
        <ele>66.592</ele>
        <time>2015-01-03T09:57:03Z</time>
      </trkpt>
      <trkpt lat="48.51689" lon="3.62444">
        <ele>66.964</ele>
        <time>2015-01-03T09:57:16Z</time>
      </trkpt>
      <trkpt lat="48.51685" lon="3.62421">
        <ele>67.155</ele>
        <time>2015-01-03T09:57:26Z</time>
      </trkpt>
      <trkpt lat="48.51681" lon="3.62393">
        <ele>67.637</ele>
        <time>2015-01-03T09:57:38Z</time>
      </trkpt>
      <trkpt lat="48.51676" lon="3.62365">
        <ele>67.445</ele>
        <time>2015-01-03T09:57:50Z</time>
      </trkpt>
      <trkpt lat="48.51671" lon="3.6234">
        <ele>67.188</ele>
        <time>2015-01-03T09:58:01Z</time>
      </trkpt>
      <trkpt lat="48.51666" lon="3.62306">
        <ele>67.335</ele>
        <time>2015-01-03T09:58:15Z</time>
      </trkpt>
      <trkpt lat="48.51664" lon="3.62275">
        <ele>67.57</ele>
        <time>2015-01-03T09:58:29Z</time>
      </trkpt>
      <trkpt lat="48.51659" lon="3.62243">
        <ele>67.813</ele>
        <time>2015-01-03T09:58:43Z</time>
      </trkpt>
      <trkpt lat="48.51653" lon="3.62206">
        <ele>67.881</ele>
        <time>2015-01-03T09:58:59Z</time>
      </trkpt>
      <trkpt lat="48.51649" lon="3.6217">
        <ele>67.98</ele>
        <time>2015-01-03T09:59:15Z</time>
      </trkpt>
      <trkpt lat="48.51644" lon="3.62145">
        <ele>68.016</ele>
        <time>2015-01-03T09:59:26Z</time>
      </trkpt>
      <trkpt lat="48.51643" lon="3.62137">
        <ele>68.142</ele>
        <time>2015-01-03T09:59:30Z</time>
      </trkpt>
      <trkpt lat="48.51637" lon="3.62099">
        <ele>68.12</ele>
        <time>2015-01-03T09:59:46Z</time>
      </trkpt>
      <trkpt lat="48.51634" lon="3.62067">
        <ele>68.214</ele>
        <time>2015-01-03T10:00:00Z</time>
      </trkpt>
      <trkpt lat="48.5163" lon="3.62035">
        <ele>68.068</ele>
        <time>2015-01-03T10:00:14Z</time>
      </trkpt>
      <trkpt lat="48.51624" lon="3.61997">
        <ele>68.477</ele>
        <time>2015-01-03T10:00:30Z</time>
      </trkpt>
      <trkpt lat="48.5162" lon="3.61972">
        <ele>68.665</ele>
        <time>2015-01-03T10:00:41Z</time>
      </trkpt>
      <trkpt lat="48.51617" lon="3.61952">
        <ele>68.723</ele>
        <time>2015-01-03T10:00:50Z</time>
      </trkpt>
      <trkpt lat="48.51614" lon="3.61924">
        <ele>69.014</ele>
        <time>2015-01-03T10:01:02Z</time>
      </trkpt>
      <trkpt lat="48.51609" lon="3.61904">
        <ele>69.08</ele>
        <time>2015-01-03T10:01:11Z</time>
      </trkpt>
      <trkpt lat="48.51603" lon="3.61869">
        <ele>69.601</ele>
        <time>2015-01-03T10:01:25Z</time>
      </trkpt>
      <trkpt lat="48.51599" lon="3.61846">
        <ele>69.444</ele>
        <time>2015-01-03T10:01:35Z</time>
      </trkpt>
      <trkpt lat="48.51597" lon="3.61825">
        <ele>69.559</ele>
        <time>2015-01-03T10:01:43Z</time>
      </trkpt>
      <trkpt lat="48.51592" lon="3.61793">
        <ele>69.544</ele>
        <time>2015-01-03T10:01:57Z</time>
      </trkpt>
      <trkpt lat="48.51589" lon="3.61762">
        <ele>69.967</ele>
        <time>2015-01-03T10:02:11Z</time>
      </trkpt>
      <trkpt lat="48.51585" lon="3.61727">
        <ele>69.647</ele>
        <time>2015-01-03T10:02:26Z</time>
      </trkpt>
      <trkpt lat="48.51584" lon="3.61703">
        <ele>69.733</ele>
        <time>2015-01-03T10:02:36Z</time>
      </trkpt>
      <trkpt lat="48.51579" lon="3.61675">
        <ele>69.951</ele>
        <time>2015-01-03T10:02:48Z</time>
      </trkpt>
      <trkpt lat="48.51575" lon="3.61648">
        <ele>70.111</ele>
        <time>2015-01-03T10:03:00Z</time>
      </trkpt>
      <trkpt lat="48.51572" lon="3.61611">
        <ele>70.002</ele>
        <time>2015-01-03T10:03:16Z</time>
      </trkpt>
      <trkpt lat="48.51566" lon="3.61571">
        <ele>69.58</ele>
        <time>2015-01-03T10:03:33Z</time>
      </trkpt>
      <trkpt lat="48.51561" lon="3.61532">
        <ele>69.375</ele>
        <time>2015-01-03T10:03:50Z</time>
      </trkpt>
      <trkpt lat="48.51555" lon="3.61497">
        <ele>69.781</ele>
        <time>2015-01-03T10:04:05Z</time>
      </trkpt>
      <trkpt lat="48.51551" lon="3.61463">
        <ele>69.566</ele>
        <time>2015-01-03T10:04:20Z</time>
      </trkpt>
      <trkpt lat="48.51546" lon="3.61428">
        <ele>69.174</ele>
        <time>2015-01-03T10:04:35Z</time>
      </trkpt>
      <trkpt lat="48.51542" lon="3.61404">
        <ele>68.996</ele>
        <time>2015-01-03T10:04:46Z</time>
      </trkpt>
      <trkpt lat="48.51538" lon="3.61367">
        <ele>68.7</ele>
        <time>2015-01-03T10:05:02Z</time>
      </trkpt>
      <trkpt lat="48.51533" lon="3.61341">
        <ele>68.553</ele>
        <time>2015-01-03T10:05:14Z</time>
      </trkpt>
      <trkpt lat="48.5153" lon="3.61309">
        <ele>68.885</ele>
        <time>2015-01-03T10:05:28Z</time>
      </trkpt>
      <trkpt lat="48.51525" lon="3.61272">
        <ele>68.434</ele>
        <time>2015-01-03T10:05:44Z</time>
      </trkpt>
      <trkpt lat="48.5152" lon="3.61247">
        <ele>68.426</ele>
        <time>2015-01-03T10:05:55Z</time>
      </trkpt>
      <trkpt lat="48.51517" lon="3.61221">
        <ele>68.045</ele>
        <time>2015-01-03T10:06:06Z</time>
      </trkpt>
      <trkpt lat="48.51513" lon="3.61198">
        <ele>68.106</ele>
        <time>2015-01-03T10:06:16Z</time>
      </trkpt>
      <trkpt lat="48.5151" lon="3.61174">
        <ele>68.146</ele>
        <time>2015-01-03T10:06:27Z</time>
      </trkpt>
      <trkpt lat="48.51506" lon="3.61154">
        <ele>68.657</ele>
        <time>2015-01-03T10:06:38Z</time>
      </trkpt>
      <trkpt lat="48.51502" lon="3.61125">
        <ele>68.068</ele>
        <time>2015-01-03T10:06:51Z</time>
      </trkpt>
      <trkpt lat="48.51498" lon="3.61094">
        <ele>68.43</ele>
        <time>2015-01-03T10:07:04Z</time>
      </trkpt>
      <trkpt lat="48.51494" lon="3.61065">
        <ele>68.125</ele>
        <time>2015-01-03T10:07:17Z</time>
      </trkpt>
      <trkpt lat="48.51489" lon="3.61038">
        <ele>68.376</ele>
        <time>2015-01-03T10:07:29Z</time>
      </trkpt>
      <trkpt lat="48.51486" lon="3.61011">
        <ele>68.1</ele>
        <time>2015-01-03T10:07:41Z</time>
      </trkpt>
      <trkpt lat="48.51483" lon="3.60983">
        <ele>68.533</ele>
        <time>2015-01-03T10:07:53Z</time>
      </trkpt>
      <trkpt lat="48.51481" lon="3.6096">
        <ele>68.244</ele>
        <time>2015-01-03T10:08:03Z</time>
      </trkpt>
      <trkpt lat="48.5148" lon="3.60929">
        <ele>68.27</ele>
        <time>2015-01-03T10:08:16Z</time>
      </trkpt>
      <trkpt lat="48.5148" lon="3.60888">
        <ele>68.598</ele>
        <time>2015-01-03T10:08:33Z</time>
      </trkpt>
      <trkpt lat="48.51479" lon="3.60861">
        <ele>68.625</ele>
        <time>2015-01-03T10:08:44Z</time>
      </trkpt>
      <trkpt lat="48.5148" lon="3.60831">
        <ele>68.636</ele>
        <time>2015-01-03T10:08:57Z</time>
      </trkpt>
      <trkpt lat="48.51481" lon="3.60797">
        <ele>68.873</ele>
        <time>2015-01-03T10:09:12Z</time>
      </trkpt>
      <trkpt lat="48.51482" lon="3.60764">
        <ele>68.659</ele>
        <time>2015-01-03T10:09:26Z</time>
      </trkpt>
      <trkpt lat="48.51482" lon="3.60739">
        <ele>69.008</ele>
        <time>2015-01-03T10:09:37Z</time>
      </trkpt>
      <trkpt lat="48.51483" lon="3.60709">
        <ele>68.935</ele>
        <time>2015-01-03T10:09:49Z</time>
      </trkpt>
      <trkpt lat="48.51484" lon="3.6068">
        <ele>69.036</ele>
        <time>2015-01-03T10:10:02Z</time>
      </trkpt>
      <trkpt lat="48.51484" lon="3.60646">
        <ele>68.733</ele>
        <time>2015-01-03T10:10:17Z</time>
      </trkpt>
      <trkpt lat="48.51486" lon="3.60611">
        <ele>68.817</ele>
        <time>2015-01-03T10:10:32Z</time>
      </trkpt>
      <trkpt lat="48.51489" lon="3.60582">
        <ele>69.046</ele>
        <time>2015-01-03T10:10:45Z</time>
      </trkpt>
      <trkpt lat="48.51493" lon="3.60551">
        <ele>69.244</ele>
        <time>2015-01-03T10:10:58Z</time>
      </trkpt>
      <trkpt lat="48.51496" lon="3.60527">
        <ele>69.038</ele>
        <time>2015-01-03T10:11:09Z</time>
      </trkpt>
      <trkpt lat="48.51498" lon="3.60506">
        <ele>68.988</ele>
        <time>2015-01-03T10:11:19Z</time>
      </trkpt>
      <trkpt lat="48.515" lon="3.60482">
        <ele>69.25</ele>
        <time>2015-01-03T10:11:30Z</time>
      </trkpt>
      <trkpt lat="48.51503" lon="3.60449">
        <ele>68.936</ele>
        <time>2015-01-03T10:11:45Z</time>
      </trkpt>
      <trkpt lat="48.51506" lon="3.6041">
        <ele>68.916</ele>
        <time>2015-01-03T10:12:02Z</time>
      </trkpt>
      <trkpt lat="48.51509" lon="3.60384">
        <ele>68.965</ele>
        <time>2015-01-03T10:12:14Z</time>
      </trkpt>
      <trkpt lat="48.51509" lon="3.60358">
        <ele>68.813</ele>
        <time>2015-01-03T10:12:26Z</time>
      </trkpt>
      <trkpt lat="48.5151" lon="3.60322">
        <ele>69.179</ele>
        <time>2015-01-03T10:12:43Z</time>
      </trkpt>
      <trkpt lat="48.5151" lon="3.60298">
        <ele>68.812</ele>
        <time>2015-01-03T10:12:54Z</time>
      </trkpt>
      <trkpt lat="48.51509" lon="3.60265">
        <ele>68.503</ele>
        <time>2015-01-03T10:13:08Z</time>
      </trkpt>
      <trkpt lat="48.51508" lon="3.60225">
        <ele>68.787</ele>
        <time>2015-01-03T10:13:25Z</time>
      </trkpt>
      <trkpt lat="48.51505" lon="3.60186">
        <ele>68.263</ele>
        <time>2015-01-03T10:13:42Z</time>
      </trkpt>
      <trkpt lat="48.51502" lon="3.60152">
        <ele>68.438</ele>
        <time>2015-01-03T10:13:57Z</time>
      </trkpt>
      <trkpt lat="48.51499" lon="3.60115">
        <ele>69.346</ele>
        <time>2015-01-03T10:14:13Z</time>
      </trkpt>
      <trkpt lat="48.51494" lon="3.60085">
        <ele>68.874</ele>
        <time>2015-01-03T10:14:27Z</time>
      </trkpt>
      <trkpt lat="48.51488" lon="3.60054">
        <ele>68.952</ele>
        <time>2015-01-03T10:14:41Z</time>
      </trkpt>
      <trkpt lat="48.51485" lon="3.60017">
        <ele>69.349</ele>
        <time>2015-01-03T10:14:57Z</time>
      </trkpt>
      <trkpt lat="48.51482" lon="3.60003">
        <ele>69.34</ele>
        <time>2015-01-03T10:15:06Z</time>
      </trkpt>
      <trkpt lat="48.5148" lon="3.59992">
        <ele>69.554</ele>
        <time>2015-01-03T10:15:13Z</time>
      </trkpt>
      <trkpt lat="48.51475" lon="3.59968">
        <ele>69.063</ele>
        <time>2015-01-03T10:15:25Z</time>
      </trkpt>
      <trkpt lat="48.51474" lon="3.59958">
        <ele>69.46</ele>
        <time>2015-01-03T10:15:33Z</time>
      </trkpt>
      <trkpt lat="48.51472" lon="3.59949">
        <ele>69.686</ele>
        <time>2015-01-03T10:15:42Z</time>
      </trkpt>
      <trkpt lat="48.51468" lon="3.59919">
        <ele>69.83</ele>
        <time>2015-01-03T10:15:56Z</time>
      </trkpt>
      <trkpt lat="48.51465" lon="3.5989">
        <ele>69.577</ele>
        <time>2015-01-03T10:16:09Z</time>
      </trkpt>
      <trkpt lat="48.5146" lon="3.59857">
        <ele>70.201</ele>
        <time>2015-01-03T10:16:25Z</time>
      </trkpt>
      <trkpt lat="48.51455" lon="3.59852">
        <ele>70.692</ele>
        <time>2015-01-03T10:16:33Z</time>
      </trkpt>
      <trkpt lat="48.51455" lon="3.59852">
        <ele>70.751</ele>
        <time>2015-01-03T10:16:34Z</time>
      </trkpt>
      <trkpt lat="48.51442" lon="3.59855">
        <ele>70.842</ele>
        <time>2015-01-03T10:16:46Z</time>
      </trkpt>
      <trkpt lat="48.51442" lon="3.59854">
        <ele>70.825</ele>
        <time>2015-01-03T10:16:51Z</time>
      </trkpt>
      <trkpt lat="48.51435" lon="3.59848">
        <ele>70.83</ele>
        <time>2015-01-03T10:16:58Z</time>
      </trkpt>
      <trkpt lat="48.51425" lon="3.5984">
        <ele>70.516</ele>
        <time>2015-01-03T10:17:08Z</time>
      </trkpt>
      <trkpt lat="48.51413" lon="3.59829">
        <ele>70.219</ele>
        <time>2015-01-03T10:17:21Z</time>
      </trkpt>
      <trkpt lat="48.51412" lon="3.59829">
        <ele>72.654</ele>
        <time>2015-01-03T10:17:30Z</time>
      </trkpt>
    </trkseg>
  </trk>
</gpx>